Dades meteomassalio
Diari Summary for Marc 8, 2018 Units:  English    Metric   Both
« Previous Day
Next Day »
Diari Semanal Mensual Anual Personalitzat
  Maxima: Minima: Mijana:
Temperatura: TemperatureC °F 2.2 °F 8 °F
Rosada: DewpointC °F -0.2 °F 3.3 °F
Humitat: Humidity % 53 % 73 %
Velocitat del vent: WindSpeedKMH mph 0.0 mph 1.2 mph
Racha vent: WindSpeedGustKMH mph - -
Vent:- - South
Pressio: PressurehPa in 1010.4 in -
Pluja: 0.0 in    
Historical Graphs
 
 
Tabular Data for Marc 8, 2018
Time Temperature Dew Point Pressure Wind Wind Speed Wind Gust Humidity Rainfall Rate (Hourly) solar Conditions
TemperatureC °F DewpointC °F PressurehPa in Calm     Humidity % HourlyPrecipMM in SolarRadiationWatts/m^2 W/m2 Conditions
00:02 2.8 °F 0.2 °F 1013.8 in Calm     83 % 0.0 in 0.0 W/m2 CLR
00:07 2.8 °F 0.2 °F 1013.4 in Calm     83 % 0.0 in 0.0 W/m2 CLR
00:12 2.8 °F 0.2 °F 1013.8 in Calm     83 % 0.0 in 0.0 W/m2 CLR
00:17 2.8 °F 0.2 °F 1013.4 in Calm     83 % 0.0 in 0.0 W/m2 CLR
00:23 2.8 °F 0.2 °F 1013.4 in Calm     83 % 0.0 in 0.0 W/m2 CLR
00:28 2.8 °F 0.2 °F 1013.4 in Calm     83 % 0.0 in 0.0 W/m2 CLR
00:33 2.8 °F 0.3 °F 1013.4 in Calm     84 % 0.0 in 0.0 W/m2 CLR
00:38 2.8 °F 0.3 °F 1013.1 in Calm     84 % 0.0 in 0.0 W/m2 CLR
00:43 2.8 °F 0.3 °F 1013.1 in Calm     84 % 0.0 in 0.0 W/m2 CLR
00:48 2.2 °F -0.2 °F 1013.1 in Calm     84 % 0.0 in 0.0 W/m2 CLR
00:53 2.2 °F -0.2 °F 1013.1 in Calm     84 % 0.0 in 0.0 W/m2 CLR
00:58 2.2 °F -0.1 °F 1013.1 in Calm     85 % 0.0 in 0.0 W/m2 CLR
01:03 2.2 °F -0.1 °F 1012.8 in Calm     85 % 0.0 in 0.0 W/m2 CLR
01:08 2.2 °F -0.1 °F 1012.8 in Calm     85 % 0.0 in 0.0 W/m2 CLR
01:13 2.2 °F -0.1 °F 1012.8 in Calm     85 % 0.0 in 0.0 W/m2 CLR
01:18 2.2 °F 0.1 °F 1012.8 in Calm     86 % 0.0 in 0.0 W/m2 CLR
01:23 2.2 °F 0.1 °F 1012.8 in Calm     86 % 0.0 in 0.0 W/m2 CLR
01:28 2.8 °F 0.7 °F 1012.8 in Calm     86 % 0.0 in 0.0 W/m2 CLR
01:33 2.8 °F 0.5 °F 1012.4 in Calm     85 % 0.0 in 0.0 W/m2 CLR
01:38 2.8 °F 0.5 °F 1012.4 in Calm     85 % 0.0 in 0.0 W/m2 CLR
01:43 2.8 °F 0.5 °F 1012.4 in Calm     85 % 0.0 in 0.0 W/m2 CLR
01:48 2.8 °F 0.5 °F 1012.4 in Calm     85 % 0.0 in 0.0 W/m2 CLR
01:53 2.8 °F 0.5 °F 1012.4 in Calm     85 % 0.0 in 0.0 W/m2 CLR
01:58 2.8 °F 0.5 °F 1012.4 in Calm     85 % 0.0 in 0.0 W/m2 CLR
02:03 2.8 °F 0.5 °F 1012.1 in Calm     85 % 0.0 in 0.0 W/m2 CLR
02:08 2.8 °F 0.5 °F 1012.4 in Calm     85 % 0.0 in 0.0 W/m2 CLR
02:13 2.8 °F 0.7 °F 1012.4 in Calm     86 % 0.0 in 0.0 W/m2 CLR
02:18 2.8 °F 0.7 °F 1012.1 in Calm     86 % 0.0 in 0.0 W/m2 CLR
02:23 2.8 °F 0.7 °F 1012.1 in Calm     86 % 0.0 in 0.0 W/m2 CLR
02:28 3.3 °F 1.2 °F 1012.1 in Calm     86 % 0.0 in 0.0 W/m2 CLR
02:33 3.3 °F 1.1 °F 1012.1 in Calm     85 % 0.0 in 0.0 W/m2 CLR
02:38 3.3 °F 1.1 °F 1011.7 in Calm     85 % 0.0 in 0.0 W/m2 CLR
02:43 3.3 °F 1.1 °F 1011.7 in Calm     85 % 0.0 in 0.0 W/m2 CLR
02:48 3.3 °F 1.1 °F 1011.7 in Calm     85 % 0.0 in 0.0 W/m2 CLR
02:53 3.3 °F 1.1 °F 1011.7 in Calm     85 % 0.0 in 0.0 W/m2 CLR
02:58 3.3 °F 1.1 °F 1011.4 in Calm     85 % 0.0 in 0.0 W/m2 CLR
03:03 3.3 °F 1.1 °F 1011.4 in Calm     85 % 0.0 in 0.0 W/m2 CLR
03:09 3.3 °F 1.1 °F 1011.4 in Calm     85 % 0.0 in 0.0 W/m2 CLR
03:14 3.3 °F 1.1 °F 1011.4 in Calm     85 % 0.0 in 0.0 W/m2 CLR
03:19 3.3 °F 1.1 °F 1011.1 in Calm     85 % 0.0 in 0.0 W/m2 CLR
03:24 3.3 °F 1.1 °F 1011.1 in Calm     85 % 0.0 in 0.0 W/m2 CLR
03:29 3.3 °F 1.2 °F 1011.1 in Calm     86 % 0.0 in 0.0 W/m2 CLR
03:34 3.3 °F 1.2 °F 1011.1 in Calm     86 % 0.0 in 0.0 W/m2 CLR
03:39 3.3 °F 1.2 °F 1011.1 in Calm     86 % 0.0 in 0.0 W/m2 CLR
03:44 3.3 °F 1.2 °F 1010.7 in Calm     86 % 0.0 in 0.0 W/m2 CLR
03:49 3.3 °F 1.2 °F 1010.7 in Calm     86 % 0.0 in 0.0 W/m2 CLR
03:54 3.3 °F 1.2 °F 1010.7 in Calm     86 % 0.0 in 0.0 W/m2 CLR
03:59 3.3 °F 1.2 °F 1010.7 in Calm     86 % 0.0 in 0.0 W/m2 CLR
04:04 3.3 °F 1.2 °F 1010.7 in Calm     86 % 0.0 in 0.0 W/m2 CLR
04:09 3.3 °F 1.2 °F 1010.7 in Calm     86 % 0.0 in 0.0 W/m2 CLR
04:14 3.3 °F 1.4 °F 1010.7 in Calm     87 % 0.0 in 0.0 W/m2 CLR
04:19 3.3 °F 1.4 °F 1010.7 in Calm     87 % 0.0 in 0.0 W/m2 CLR
04:24 3.3 °F 1.4 °F 1010.7 in Calm     87 % 0.0 in 0.0 W/m2 CLR
04:29 3.3 °F 1.4 °F 1010.7 in Calm     87 % 0.0 in 0.0 W/m2 CLR
04:34 3.3 °F 1.2 °F 1010.7 in Calm     86 % 0.0 in 0.0 W/m2 CLR
04:39 3.3 °F 1.2 °F 1010.7 in Calm     86 % 0.0 in 0.0 W/m2 CLR
04:44 3.9 °F 1.8 °F 1010.7 in Calm     86 % 0.0 in 0.0 W/m2 CLR
04:49 3.9 °F 1.8 °F 1010.7 in Calm     86 % 0.0 in 0.0 W/m2 CLR
04:54 3.9 °F 1.8 °F 1010.7 in Calm     86 % 0.0 in 0.0 W/m2 CLR
04:59 3.9 °F 1.9 °F 1010.7 in Calm     87 % 0.0 in 0.0 W/m2 CLR
05:04 3.9 °F 1.9 °F 1010.7 in Calm     87 % 0.0 in 0.0 W/m2 CLR
05:09 3.9 °F 1.8 °F 1010.4 in Calm     86 % 0.0 in 0.0 W/m2 CLR
05:14 3.9 °F 1.8 °F 1010.7 in Calm     86 % 0.0 in 0.0 W/m2 CLR
05:19 3.9 °F 1.8 °F 1010.7 in Calm     86 % 0.0 in 0.0 W/m2 CLR
05:24 3.9 °F 1.8 °F 1010.7 in Calm     86 % 0.0 in 0.0 W/m2 CLR
05:25 3.9 °F 1.8 °F 1010.7 in Calm     86 % 0.0 in 0.0 W/m2 CLR
05:30 3.9 °F 1.8 °F 1010.7 in Calm     86 % 0.0 in 0.0 W/m2 CLR
05:35 3.9 °F 1.8 °F 1010.7 in Calm     86 % 0.0 in 0.0 W/m2 CLR
05:40 3.9 °F 1.8 °F 1010.7 in Calm     86 % 0.0 in 0.0 W/m2 CLR
05:45 3.9 °F 1.8 °F 1010.7 in Calm     86 % 0.0 in 0.0 W/m2 CLR
05:50 3.9 °F 1.8 °F 1010.7 in Calm     86 % 0.0 in 0.0 W/m2 CLR
05:55 3.9 °F 1.8 °F 1010.7 in Calm     86 % 0.0 in 0.0 W/m2 CLR
06:00 3.9 °F 1.8 °F 1010.7 in Calm     86 % 0.0 in 0.0 W/m2 CLR
06:05 3.9 °F 1.8 °F 1010.7 in Calm     86 % 0.0 in 0.0 W/m2 CLR
06:10 3.9 °F 1.8 °F 1010.7 in Calm     86 % 0.0 in 0.0 W/m2 CLR
06:15 3.9 °F 1.8 °F 1010.7 in Calm     86 % 0.0 in 0.0 W/m2 CLR
06:20 3.9 °F 1.8 °F 1011.1 in Calm     86 % 0.0 in 0.0 W/m2 CLR
06:25 3.9 °F 1.8 °F 1011.1 in Calm     86 % 0.0 in 0.0 W/m2 CLR
06:30 4.4 °F 2.3 °F 1011.1 in Calm     86 % 0.0 in 0.0 W/m2 CLR
06:35 4.4 °F 2.3 °F 1011.1 in Calm     86 % 0.0 in 0.0 W/m2 CLR
06:40 4.4 °F 2.3 °F 1011.1 in Calm     86 % 0.0 in 0.0 W/m2 CLR
06:45 4.4 °F 2.3 °F 1011.1 in Calm     86 % 0.0 in 0.0 W/m2 CLR
06:50 4.4 °F 2.3 °F 1011.1 in Calm     86 % 0.0 in 0.0 W/m2 CLR
06:55 4.4 °F 2.3 °F 1011.1 in Calm     86 % 0.0 in 0.0 W/m2 CLR
07:00 4.4 °F 2.3 °F 1011.4 in Calm     86 % 0.0 in 0.0 W/m2 CLR
07:05 4.4 °F 2.3 °F 1011.4 in Calm     86 % 0.0 in 0.0 W/m2 CLR
07:10 4.4 °F 2.3 °F 1011.4 in Calm     86 % 0.0 in 0.0 W/m2 CLR
07:15 4.4 °F 2.3 °F 1011.4 in Calm     86 % 0.0 in 0.0 W/m2 OVC
07:20 4.4 °F 2.3 °F 1011.7 in Calm     86 % 0.0 in 0.0 W/m2 OVC
07:25 4.4 °F 2.3 °F 1011.7 in Calm     86 % 0.0 in 0.0 W/m2 OVC
07:30 4.4 °F 2.3 °F 1011.7 in Calm     86 % 0.0 in 9.0 W/m2 BKN
07:35 4.4 °F 2.3 °F 1012.1 in Calm     86 % 0.0 in 30.0 W/m2 BKN
07:40 4.4 °F 2.3 °F 1012.1 in Calm     86 % 0.0 in 28.0 W/m2 BKN
07:45 5.0 °F 2.8 °F 1012.1 in Calm     86 % 0.0 in 23.0 W/m2 BKN
07:50 5.0 °F 2.7 °F 1012.1 in Calm     85 % 0.0 in 25.0 W/m2 BKN
07:55 5.0 °F 2.5 °F 1012.1 in Calm     84 % 0.0 in 42.0 W/m2 BKN
08:00 5.0 °F 2.5 °F 1012.4 in Calm     84 % 0.0 in 44.0 W/m2 BKN
08:05 5.6 °F 2.9 °F 1012.4 in Calm     83 % 0.0 in 35.0 W/m2 BKN
08:10 5.6 °F 2.9 °F 1012.4 in Calm     83 % 0.0 in 47.0 W/m2 BKN
08:15 5.6 °F 2.7 °F 1012.1 in Calm     82 % 0.0 in 74.0 W/m2 FEW
08:20 5.6 °F 2.4 °F 1012.4 in Calm     80 % 0.0 in 81.0 W/m2 FEW
08:25 6.1 °F 2.7 °F 1012.4 in Calm     79 % 0.0 in 95.0 W/m2 FEW
08:30 6.1 °F 2.7 °F 1012.1 in Calm     79 % 0.0 in 120.0 W/m2 CLR
08:35 6.1 °F 2.6 °F 1012.4 in Calm     78 % 0.0 in 167.0 W/m2 CLR
08:40 6.7 °F 2.9 °F 1012.4 in Calm     77 % 0.0 in 137.0 W/m2 CLR
08:45 7.2 °F 3.4 °F 1012.4 in Calm     77 % 0.0 in 107.0 W/m2 CLR
08:50 7.2 °F 3.1 °F 1012.4 in Calm     75 % 0.0 in 100.0 W/m2 CLR
08:55 7.8 °F 3.4 °F 1012.4 in Calm     74 % 0.0 in 98.0 W/m2 CLR
09:00 7.8 °F 3.2 °F 1012.4 in Calm     73 % 0.0 in 137.0 W/m2 CLR
09:05 7.8 °F 2.8 °F 1012.4 in Calm     71 % 0.0 in 146.0 W/m2 CLR
09:10 8.3 °F 3.4 °F 1012.4 in Calm     71 % 0.0 in 172.0 W/m2 CLR
09:15 8.3 °F 3.6 °F 1012.4 in Calm     72 % 0.0 in 144.0 W/m2 CLR
09:20 8.9 °F 3.9 °F 1012.4 in Calm     71 % 0.0 in 137.0 W/m2 CLR
09:25 8.9 °F 3.7 °F 1012.8 in Calm     70 % 0.0 in 176.0 W/m2 CLR
09:30 8.9 °F 3.7 °F 1012.8 in Calm     70 % 0.0 in 163.0 W/m2 CLR
09:35 8.9 °F 3.7 °F 1012.8 in Calm     70 % 0.0 in 135.0 W/m2 CLR
09:40 8.9 °F 3.5 °F 1012.8 in Calm     69 % 0.0 in 121.0 W/m2 CLR
09:45 8.9 °F 3.3 °F 1012.8 in Calm     68 % 0.0 in 114.0 W/m2 CLR
09:50 9.4 °F 3.8 °F 1012.8 in Calm     68 % 0.0 in 130.0 W/m2 CLR
09:55 9.4 °F 3.6 °F 1012.8 in Calm     67 % 0.0 in 111.0 W/m2 CLR
10:00 9.4 °F 3.6 °F 1012.8 in Calm     67 % 0.0 in 120.0 W/m2 CLR
10:05 9.4 °F 3.8 °F 1012.8 in Calm     68 % 0.0 in 125.0 W/m2 CLR
10:10 9.4 °F 3.4 °F 1012.8 in Calm     66 % 0.0 in 151.0 W/m2 CLR
10:15 10.0 °F 4.2 °F 1013.1 in Calm     67 % 0.0 in 148.0 W/m2 CLR
10:20 10.0 °F 4.2 °F 1012.8 in Calm     67 % 0.0 in 144.0 W/m2 CLR
10:26 10.0 °F 3.9 °F 1012.8 in Calm     66 % 0.0 in 144.0 W/m2 CLR
10:31 10.6 °F 4.4 °F 1012.8 in Calm     66 % 0.0 in 132.0 W/m2 CLR
10:36 10.0 °F 3.7 °F 1012.8 in Calm     65 % 0.0 in 169.0 W/m2 CLR
10:41 10.0 °F 3.7 °F 1012.8 in Calm     65 % 0.0 in 160.0 W/m2 CLR
10:46 10.0 °F 3.7 °F 1013.1 in Calm     65 % 0.0 in 179.0 W/m2 CLR
10:51 10.6 °F 4.0 °F 1012.8 in Calm     64 % 0.0 in 185.0 W/m2 CLR
10:56 10.6 °F 4.0 °F 1012.8 in Calm     64 % 0.0 in 185.0 W/m2 CLR
11:01 10.6 °F 4.2 °F 1013.1 in Calm     65 % 0.0 in 193.0 W/m2 CLR
11:06 10.6 °F 4.2 °F 1013.1 in Calm     65 % 0.0 in 251.0 W/m2 CLR
11:11 10.6 °F 4.2 °F 1013.1 in Calm     65 % 0.0 in 334.0 W/m2 CLR
11:16 11.1 °F 4.8 °F 1013.1 in Calm     65 % 0.0 in 329.0 W/m2 CLR
11:21 11.1 °F 4.3 °F 1013.1 in Calm     63 % 0.0 in 330.0 W/m2 CLR
11:26 11.1 °F 4.6 °F 1012.8 in Calm     64 % 0.0 in 329.0 W/m2 CLR
11:31 11.1 °F 4.3 °F 1012.8 in Calm     63 % 0.0 in 320.0 W/m2 CLR
11:36 11.1 °F 4.3 °F 1012.8 in Calm     63 % 0.0 in 357.0 W/m2 CLR
11:41 11.1 °F 3.9 °F 1012.8 in Calm     61 % 0.0 in 306.0 W/m2 CLR
11:46 11.7 °F 4.4 °F 1012.8 in Calm     61 % 0.0 in 315.0 W/m2 CLR
11:51 11.7 °F 4.4 °F 1012.8 in Calm     61 % 0.0 in 369.0 W/m2 CLR
11:56 11.7 °F 4.6 °F 1012.8 in Calm     62 % 0.0 in 396.0 W/m2 CLR
12:01 11.7 °F 4.6 °F 1012.8 in Calm     62 % 0.0 in 369.0 W/m2 CLR
12:06 12.2 °F 5.6 °F 1012.8 in Calm     64 % 0.0 in 390.0 W/m2 CLR
12:11 11.7 °F 4.6 °F 1012.8 in Calm     62 % 0.0 in 371.0 W/m2 CLR
12:16 11.7 °F 4.4 °F 1012.8 in NNW 1.9 mph 1.9 mph 61 % 0.0 in 295.0 W/m2 CLR
12:21 11.7 °F 4.4 °F 1012.8 in Calm     61 % 0.0 in 369.0 W/m2 CLR
12:26 12.2 °F 5.2 °F 1012.8 in Calm     62 % 0.0 in 322.0 W/m2 CLR
12:31 12.2 °F 4.7 °F 1012.8 in Calm     60 % 0.0 in 425.0 W/m2 CLR
12:36 12.8 °F 5.4 °F 1012.8 in Calm     61 % 0.0 in 520.0 W/m2 CLR
12:41 12.8 °F 5.7 °F 1012.8 in Calm     62 % 0.0 in 478.0 W/m2 CLR
12:46 13.3 °F 5.7 °F 1012.8 in Calm     60 % 0.0 in 473.0 W/m2 CLR
12:51 13.3 °F 5.7 °F 1012.8 in Calm     60 % 0.0 in 504.0 W/m2 CLR
12:56 13.3 °F 5.9 °F 1012.8 in Calm     61 % 0.0 in 439.0 W/m2 CLR
13:01 13.3 °F 5.5 °F 1012.8 in Calm     59 % 0.0 in 485.0 W/m2 CLR
13:06 13.3 °F 5.7 °F 1012.8 in Calm     60 % 0.0 in 455.0 W/m2 CLR
13:11 13.3 °F 5.5 °F 1012.4 in Calm     59 % 0.0 in 717.0 W/m2 CLR
13:16 13.3 °F 5.7 °F 1012.4 in Calm     60 % 0.0 in 793.0 W/m2 CLR
13:21 13.9 °F 6.0 °F 1012.4 in Calm     59 % 0.0 in 814.0 W/m2 CLR
13:26 13.9 °F 6.2 °F 1012.1 in Calm     60 % 0.0 in 828.0 W/m2 CLR
13:31 13.9 °F 5.5 °F 1012.1 in North 11.3 mph 11.3 mph 57 % 0.0 in 489.0 W/m2 CLR
13:36 13.9 °F 5.8 °F 1012.1 in NNE 1.9 mph 1.9 mph 58 % 0.0 in 306.0 W/m2 CLR
13:41 13.3 °F 5.0 °F 1012.1 in Calm     57 % 0.0 in 339.0 W/m2 CLR
13:46 13.3 °F 5.2 °F 1012.1 in Calm     58 % 0.0 in 399.0 W/m2 CLR
13:51 13.3 °F 5.5 °F 1012.1 in Calm     59 % 0.0 in 512.0 W/m2 CLR
13:56 13.9 °F 5.5 °F 1012.1 in Calm     57 % 0.0 in 564.0 W/m2 CLR
14:01 13.9 °F 6.0 °F 1012.1 in Calm     59 % 0.0 in 988.0 W/m2 CLR
14:06 14.4 °F 6.3 °F 1012.1 in NNW 1.6 mph 1.6 mph 58 % 0.0 in 529.0 W/m2 CLR
14:11 14.4 °F 5.8 °F 1012.1 in NNW 3.7 mph 3.7 mph 56 % 0.0 in 418.0 W/m2 CLR
14:16 14.4 °F 6.0 °F 1011.7 in Calm     57 % 0.0 in 584.0 W/m2 CLR
14:21 14.4 °F 6.5 °F 1011.7 in North 14.8 mph 14.8 mph 59 % 0.0 in 1007.0 W/m2 CLR
14:26 15.0 °F 6.3 °F 1012.1 in Calm     56 % 0.0 in 369.0 W/m2 CLR
14:31 15.0 °F 6.3 °F 1011.7 in Calm     56 % 0.0 in 348.0 W/m2 CLR
14:36 14.4 °F 6.5 °F 1011.7 in NNW 11.1 mph 11.1 mph 59 % 0.0 in 949.0 W/m2 CLR
14:41 15.0 °F 5.8 °F 1011.7 in Calm     54 % 0.0 in 954.0 W/m2 CLR
14:46 15.6 °F 6.6 °F 1011.7 in North 17.7 mph 17.7 mph 55 % 0.0 in 411.0 W/m2 CLR
14:51 15.6 °F 6.6 °F 1011.7 in NNW 14.8 mph 14.8 mph 55 % 0.0 in 272.0 W/m2 CLR
14:56 15.0 °F 6.3 °F 1011.7 in NW 13.0 mph 13.0 mph 56 % 0.0 in 248.0 W/m2 CLR
15:01 14.4 °F 6.0 °F 1011.7 in NNE 13.0 mph 13.0 mph 57 % 0.0 in 279.0 W/m2 CLR
15:06 14.4 °F 5.8 °F 1012.1 in Calm     56 % 0.0 in 257.0 W/m2 CLR
15:11 14.4 °F 6.3 °F 1011.7 in North 5.6 mph   58 % 0.0 in 290.0 W/m2 CLR
15:16 14.4 °F 6.3 °F 1011.7 in NNW 14.8 mph 14.8 mph 58 % 0.0 in 348.0 W/m2 CLR
15:21 14.4 °F 6.0 °F 1011.7 in NE 16.7 mph 16.7 mph 57 % 0.0 in 329.0 W/m2 CLR
15:26 14.4 °F 5.8 °F 1011.7 in NNE 16.7 mph 16.7 mph 56 % 0.0 in 316.0 W/m2 CLR
15:31 14.4 °F 6.3 °F 1011.7 in NE 17.7 mph 17.7 mph 58 % 0.0 in 329.0 W/m2 CLR
15:36 14.4 °F 6.0 °F 1011.7 in NE 18.5 mph 18.5 mph 57 % 0.0 in 336.0 W/m2 CLR
15:41 14.4 °F 5.8 °F 1011.7 in NE 16.7 mph 16.7 mph 56 % 0.0 in 285.0 W/m2 CLR
15:46 14.4 °F 6.3 °F 1011.7 in North 12.9 mph 12.9 mph 58 % 0.0 in 315.0 W/m2 CLR
15:51 14.4 °F 6.3 °F 1011.7 in Calm     58 % 0.0 in 392.0 W/m2 CLR
15:56 14.4 °F 6.0 °F 1011.7 in NNE 14.8 mph 14.8 mph 57 % 0.0 in 731.0 W/m2 CLR
16:01 15.6 °F 7.1 °F 1011.7 in North 18.5 mph 18.5 mph 57 % 0.0 in 146.0 W/m2 CLR
16:06 15.6 °F 7.1 °F 1011.7 in Calm     57 % 0.0 in 179.0 W/m2 CLR
16:11 15.0 °F 6.6 °F 1012.1 in Calm   0.5 mph 57 % 0.0 in 123.0 W/m2 CLR
16:16 14.4 °F 6.0 °F 1012.1 in NNE 14.8 mph 14.8 mph 57 % 0.0 in 471.0 W/m2 CLR
16:21 14.4 °F 6.0 °F 1012.1 in NE 14.8 mph 14.8 mph 57 % 0.0 in 492.0 W/m2 CLR
16:27 15.0 °F 6.6 °F 1011.7 in NNW 16.7 mph 16.7 mph 57 % 0.0 in 439.0 W/m2 CLR
16:32 15.0 °F 6.0 °F 1012.1 in North 11.1 mph 11.1 mph 55 % 0.0 in 448.0 W/m2 CLR
16:37 15.6 °F 6.8 °F 1012.1 in Calm     56 % 0.0 in 441.0 W/m2 CLR
16:42 15.6 °F 6.6 °F 1012.1 in Calm     55 % 0.0 in 408.0 W/m2 CLR
16:47 15.6 °F 6.6 °F 1012.1 in Calm     55 % 0.0 in 360.0 W/m2 CLR
16:52 15.0 °F 5.5 °F 1011.7 in Calm     53 % 0.0 in 343.0 W/m2 CLR
16:57 15.0 °F 5.5 °F 1011.7 in NNW 14.8 mph 14.8 mph 53 % 0.0 in 330.0 W/m2 CLR
17:02 15.0 °F 5.8 °F 1011.7 in Calm     54 % 0.0 in 318.0 W/m2 CLR
17:07 15.6 °F 6.3 °F 1011.7 in NNW 14.8 mph 14.8 mph 54 % 0.0 in 297.0 W/m2 CLR
17:12 15.0 °F 5.8 °F 1011.7 in Calm     54 % 0.0 in 278.0 W/m2 CLR
17:17 15.0 °F 5.8 °F 1012.1 in Calm     54 % 0.0 in 265.0 W/m2 CLR
17:18 15.0 °F 6.3 °F 1012.1 in Calm     56 % 0.0 in 265.0 W/m2 CLR
17:23 15.0 °F 6.0 °F 1012.1 in Calm     55 % 0.0 in 243.0 W/m2 CLR
17:28 14.4 °F 5.5 °F 1012.1 in NNE 1.9 mph 1.9 mph 55 % 0.0 in 218.0 W/m2 CLR
17:33 14.4 °F 5.2 °F 1012.1 in Calm     54 % 0.0 in 207.0 W/m2 CLR
17:38 14.4 °F 5.8 °F 1012.1 in Calm     56 % 0.0 in 190.0 W/m2 CLR
17:43 14.4 °F 5.8 °F 1012.1 in NNW 1.9 mph   56 % 0.0 in 169.0 W/m2 CLR
17:48 14.4 °F 5.2 °F 1012.1 in Calm     54 % 0.0 in 149.0 W/m2 CLR
17:53 14.4 °F 5.8 °F 1011.7 in Calm     56 % 0.0 in 134.0 W/m2 CLR
17:58 14.4 °F 5.5 °F 1012.1 in North 3.7 mph 3.7 mph 55 % 0.0 in 116.0 W/m2 CLR
18:03 13.9 °F 5.0 °F 1012.1 in Calm     55 % 0.0 in 104.0 W/m2 CLR
18:08 13.9 °F 5.0 °F 1012.1 in Calm     55 % 0.0 in 76.0 W/m2 FEW
18:13 13.9 °F 5.2 °F 1012.1 in Calm     56 % 0.0 in 60.0 W/m2 SCT
18:18 13.9 °F 5.2 °F 1012.1 in Calm     56 % 0.0 in 51.0 W/m2 SCT
18:23 13.3 °F 5.0 °F 1012.1 in Calm     57 % 0.0 in 39.0 W/m2 BKN
18:28 13.3 °F 5.0 °F 1012.4 in Calm     57 % 0.0 in 28.0 W/m2 BKN
18:33 13.3 °F 5.0 °F 1012.4 in Calm     57 % 0.0 in 18.0 W/m2 BKN
18:38 12.8 °F 4.7 °F 1012.4 in Calm     58 % 0.0 in 12.0 W/m2 BKN
18:43 12.2 °F 4.4 °F 1012.4 in Calm     59 % 0.0 in 9.0 W/m2 BKN
18:48 11.7 °F 4.2 °F 1012.8 in Calm     60 % 0.0 in 7.0 W/m2 BKN
18:53 11.1 °F 3.9 °F 1012.8 in Calm     61 % 0.0 in 5.0 W/m2 OVC
18:58 11.1 °F 4.1 °F 1012.8 in Calm     62 % 0.0 in 0.0 W/m2 OVC
19:03 10.6 °F 3.8 °F 1012.8 in Calm     63 % 0.0 in 0.0 W/m2 CLR
19:08 10.0 °F 3.5 °F 1012.8 in Calm     64 % 0.0 in 0.0 W/m2 CLR
19:13 9.4 °F 2.9 °F 1012.8 in Calm     64 % 0.0 in 0.0 W/m2 CLR
19:18 9.4 °F 3.2 °F 1012.8 in Calm     65 % 0.0 in 0.0 W/m2 CLR
19:23 8.9 °F 2.7 °F 1012.8 in Calm     65 % 0.0 in 0.0 W/m2 CLR
19:28 8.9 °F 2.9 °F 1013.1 in Calm     66 % 0.0 in 0.0 W/m2 CLR
19:33 8.9 °F 2.9 °F 1013.1 in Calm     66 % 0.0 in 0.0 W/m2 CLR
19:38 8.3 °F 2.8 °F 1013.1 in Calm     68 % 0.0 in 0.0 W/m2 CLR
19:43 8.9 °F 3.3 °F 1013.1 in Calm     68 % 0.0 in 0.0 W/m2 CLR
19:48 8.9 °F 3.7 °F 1013.4 in Calm     70 % 0.0 in 0.0 W/m2 CLR
19:53 8.3 °F 3.4 °F 1013.4 in Calm     71 % 0.0 in 0.0 W/m2 CLR
19:58 8.3 °F 3.6 °F 1013.4 in Calm     72 % 0.0 in 0.0 W/m2 CLR
20:03 8.3 °F 3.8 °F 1013.4 in Calm     73 % 0.0 in 0.0 W/m2 CLR
20:08 8.3 °F 3.9 °F 1013.8 in Calm     74 % 0.0 in 0.0 W/m2 CLR
20:13 8.3 °F 4.2 °F 1013.8 in Calm     75 % 0.0 in 0.0 W/m2 CLR
20:18 7.8 °F 3.8 °F 1013.8 in Calm     76 % 0.0 in 0.0 W/m2 CLR
20:23 7.8 °F 4.0 °F 1013.8 in Calm     77 % 0.0 in 0.0 W/m2 CLR
20:28 7.2 °F 3.7 °F 1013.8 in Calm     78 % 0.0 in 0.0 W/m2 CLR
20:33 7.2 °F 3.8 °F 1013.8 in Calm     79 % 0.0 in 0.0 W/m2 CLR
20:38 7.2 °F 3.8 °F 1014.1 in Calm     79 % 0.0 in 0.0 W/m2 CLR
20:43 6.7 °F 3.3 °F 1014.1 in Calm     79 % 0.0 in 0.0 W/m2 CLR
20:48 6.7 °F 3.4 °F 1014.1 in Calm     80 % 0.0 in 0.0 W/m2 CLR
20:54 6.7 °F 3.6 °F 1014.1 in Calm     81 % 0.0 in 0.0 W/m2 CLR
20:59 6.7 °F 3.6 °F 1014.1 in Calm     81 % 0.0 in 0.0 W/m2 CLR
21:04 6.1 °F 3.3 °F 1014.1 in Calm     82 % 0.0 in 0.0 W/m2 CLR
21:09 6.1 °F 3.3 °F 1014.1 in Calm     82 % 0.0 in 0.0 W/m2 CLR
21:13 6.1 °F 3.4 °F 1014.1 in Calm     83 % 0.0 in 0.0 W/m2 CLR
21:19 5.6 °F 2.9 °F 1014.1 in Calm     83 % 0.0 in 0.0 W/m2 CLR
21:24 5.6 °F 2.9 °F 1014.1 in Calm     83 % 0.0 in 0.0 W/m2 CLR
21:29 5.6 °F 2.9 °F 1014.4 in Calm     83 % 0.0 in 0.0 W/m2 CLR
21:34 5.6 °F 3.1 °F 1014.4 in Calm     84 % 0.0 in 0.0 W/m2 CLR
21:39 5.6 °F 3.1 °F 1014.4 in Calm     84 % 0.0 in 0.0 W/m2 CLR
21:44 5.6 °F 3.1 °F 1014.4 in Calm     84 % 0.0 in 0.0 W/m2 CLR
21:49 5.6 °F 3.2 °F 1014.4 in Calm     85 % 0.0 in 0.0 W/m2 CLR
21:54 5.6 °F 3.2 °F 1014.4 in Calm     85 % 0.0 in 0.0 W/m2 CLR
21:59 5.0 °F 2.7 °F 1014.4 in Calm     85 % 0.0 in 0.0 W/m2 CLR
22:04 5.0 °F 2.7 °F 1014.4 in Calm     85 % 0.0 in 0.0 W/m2 CLR
22:09 5.0 °F 2.7 °F 1014.4 in Calm     85 % 0.0 in 0.0 W/m2 CLR
22:14 5.0 °F 2.7 °F 1014.4 in Calm     85 % 0.0 in 0.0 W/m2 CLR
22:19 5.0 °F 2.7 °F 1014.4 in Calm     85 % 0.0 in 0.0 W/m2 CLR
22:24 5.0 °F 2.7 °F 1014.4 in Calm     85 % 0.0 in 0.0 W/m2 CLR
22:29 5.0 °F 2.7 °F 1014.8 in Calm     85 % 0.0 in 0.0 W/m2 CLR
22:34 5.0 °F 2.7 °F 1014.8 in Calm     85 % 0.0 in 0.0 W/m2 CLR
22:39 5.0 °F 2.8 °F 1014.8 in Calm     86 % 0.0 in 0.0 W/m2 CLR
22:44 5.0 °F 2.8 °F 1014.8 in Calm     86 % 0.0 in 0.0 W/m2 CLR
22:49 4.4 °F 2.2 °F 1014.8 in Calm     85 % 0.0 in 0.0 W/m2 CLR
22:54 4.4 °F 2.3 °F 1014.8 in Calm     86 % 0.0 in 0.0 W/m2 CLR
22:59 4.4 °F 2.4 °F 1014.8 in Calm     87 % 0.0 in 0.0 W/m2 CLR
23:04 4.4 °F 2.4 °F 1014.8 in Calm     87 % 0.0 in 0.0 W/m2 CLR
23:09 4.4 °F 2.4 °F 1015.1 in Calm     87 % 0.0 in 0.0 W/m2 CLR
23:14 4.4 °F 2.4 °F 1014.8 in Calm     87 % 0.0 in 0.0 W/m2 CLR
23:19 4.4 °F 2.4 °F 1014.8 in Calm     87 % 0.0 in 0.0 W/m2 CLR
23:24 4.4 °F 2.4 °F 1014.8 in Calm     87 % 0.0 in 0.0 W/m2 CLR
23:29 4.4 °F 2.6 °F 1014.8 in Calm     88 % 0.0 in 0.0 W/m2 CLR
23:34 4.4 °F 2.6 °F 1015.1 in Calm     88 % 0.0 in 0.0 W/m2 CLR
23:39 4.4 °F 2.6 °F 1014.8 in Calm     88 % 0.0 in 0.0 W/m2 CLR
23:44 4.4 °F 2.6 °F 1014.8 in Calm     88 % 0.0 in 0.0 W/m2 CLR
23:49 4.4 °F 2.6 °F 1014.8 in Calm     88 % 0.0 in 0.0 W/m2 CLR
23:54 4.4 °F 2.6 °F 1015.1 in Calm     88 % 0.0 in 0.0 W/m2 CLR
23:59 4.4 °F 2.8 °F 1015.1 in Calm     89 % 0.0 in 0.0 W/m2 CLR
Lo Temps de Massalio
Compliments of Weather Underground - 1.25 mb